Terminal Aerodrome Forecast
Issued by NWS

Home | Current Version | Previous Version | Text Only | Print | Product List | Glossary On
Versions: 1 2 3 4 5 6 7 8 9 10 11 12 13 14 15 16 17 18 19 20 21 22
000
FTPA31 PHFO 231100
TAFJRF
TAF
PHJR 231138Z 2312/2412 VRB03KT P6SM SCT030 SCT050
     FM232000 08008G15KT P6SM FEW030 SCT050
     FM240200 06005KT P6SM FEW030 SCT050
     FM240600 VRB03KT P6SM SCT030 SCT050=

USA.gov is the U.S. government's official web portal to all federal, state and local government web resources and services.